Time;durP1;ratioP1;P1;durP2;ratioP2;P2;SDS_P1;SDS_P2;PMS_P1;PMS_P2;Temp;Humidity;BMP_temperature;BMP_pressure;BME280_temperature;BME280_humidity;BME280_pressure;Samples;Min_cycle;Max_cycle;Signal;HPM_P1;HPM_P2
2022/09/22 00:02:20;;;;;;;8.70;6.60;;;6.10;99.90;;;;;;5069193;28;20443;-69
2022/09/22 00:04:47;;;;;;;9.43;6.70;;;6.10;99.90;;;;;;5069881;28;20485;-69
2022/09/22 00:07:13;;;;;;;9.93;6.03;;;6.10;99.90;;;;;;5069697;28;20936;-69
2022/09/22 00:09:40;;;;;;;7.30;6.60;;;6.00;99.90;;;;;;5070069;28;20451;-69
2022/09/22 00:12:07;;;;;;;6.77;6.10;;;6.00;99.90;;;;;;5069174;28;20453;-69
2022/09/22 00:14:34;;;;;;;7.10;6.40;;;6.00;99.90;;;;;;5069467;28;20493;-69
2022/09/22 00:17:02;;;;;;;7.47;6.83;;;5.90;99.90;;;;;;5069661;28;20487;-69
2022/09/22 00:19:31;;;;;;;8.37;6.70;;;6.00;99.90;;;;;;5069530;28;20447;-69
2022/09/22 00:21:58;;;;;;;7.50;6.80;;;6.00;99.90;;;;;;5069310;28;20439;-69
2022/09/22 00:24:26;;;;;;;7.00;6.30;;;5.90;99.90;;;;;;5069386;28;20983;-69
2022/09/22 00:26:56;;;;;;;7.23;6.60;;;5.90;99.90;;;;;;5069518;28;20488;-69
2022/09/22 00:29:23;;;;;;;8.47;7.13;;;5.90;99.90;;;;;;5069322;28;20833;-69
2022/09/22 00:31:50;;;;;;;7.83;7.10;;;5.90;99.90;;;;;;5069348;28;20442;-69
2022/09/22 00:34:21;;;;;;;8.27;7.13;;;5.80;99.90;;;;;;5069532;28;20467;-69
2022/09/22 00:36:48;;;;;;;7.10;6.20;;;5.80;99.90;;;;;;5069727;28;20439;-69
2022/09/22 00:39:17;;;;;;;7.83;7.10;;;5.70;99.90;;;;;;5073049;28;20837;-69
2022/09/22 00:41:46;;;;;;;8.00;6.70;;;5.80;99.90;;;;;;5072801;28;20462;-69
2022/09/22 00:44:33;;;;;;;8.70;7.80;;;5.90;99.90;;;;;;5073061;28;20854;-69
2022/09/22 00:47:03;;;;;;;10.10;7.13;;;5.90;99.90;;;;;;5063527;28;20462;-69
2022/09/22 00:49:37;;;;;;;9.83;6.20;;;5.90;99.90;;;;;;5072878;28;20435;-69
2022/09/22 00:52:05;;;;;;;6.83;6.17;;;5.80;99.90;;;;;;5072744;28;20806;-70
2022/09/22 00:54:32;;;;;;;7.30;6.20;;;5.70;99.90;;;;;;5072689;28;20447;-69
2022/09/22 00:57:05;;;;;;;9.00;6.90;;;5.70;99.90;;;;;;5073236;28;20848;-69
2022/09/22 00:59:32;;;;;;;8.23;6.67;;;5.70;99.90;;;;;;5073001;28;20447;-70
2022/09/22 01:01:59;;;;;;;7.80;7.00;;;5.70;99.90;;;;;;5072878;28;20450;-70
2022/09/22 01:04:26;;;;;;;8.50;6.83;;;5.60;99.90;;;;;;5072663;28;20489;-70
2022/09/22 01:06:56;;;;;;;7.70;6.90;;;5.60;99.90;;;;;;5072667;28;20959;-69
2022/09/22 01:09:24;;;;;;;8.83;6.50;;;5.60;99.90;;;;;;5072662;28;20878;-69
2022/09/22 01:11:51;;;;;;;8.37;7.57;;;5.70;99.90;;;;;;5072334;28;20446;-69
2022/09/22 01:14:31;;;;;;;7.43;6.80;;;5.80;99.90;;;;;;5073111;28;20825;-69
2022/09/22 01:17:06;;;;;;;7.13;6.43;;;5.70;99.90;;;;;;5086828;28;20504;-70
2022/09/22 01:19:55;;;;;;;7.67;6.87;;;5.60;99.90;;;;;;5073403;28;20434;-70
2022/09/22 01:22:40;;;;;;;8.17;6.10;;;5.50;99.90;;;;;;5072203;28;20897;-69
2022/09/22 01:25:25;;;;;;;8.17;7.10;;;5.50;99.90;;;;;;5072121;28;21017;-70
2022/09/22 01:28:19;;;;;;;10.10;7.20;;;5.50;99.90;;;;;;5072302;28;20505;-69
2022/09/22 01:30:52;;;;;;;8.40;7.60;;;5.40;99.90;;;;;;5072143;28;20447;-69
2022/09/22 01:33:29;;;;;;;8.47;7.50;;;5.40;99.90;;;;;;5071669;28;20463;-68
2022/09/22 01:36:05;;;;;;;7.83;7.10;;;5.30;99.90;;;;;;5071939;28;20442;-69
2022/09/22 01:38:36;;;;;;;7.80;7.00;;;5.40;99.90;;;;;;5072133;28;20450;-69
2022/09/22 01:41:08;;;;;;;10.17;7.53;;;5.30;99.90;;;;;;5072178;28;20462;-69
2022/09/22 01:43:41;;;;;;;8.37;7.03;;;5.40;99.90;;;;;;5071385;28;20459;-69
2022/09/22 01:46:14;;;;;;;8.10;7.40;;;5.40;99.90;;;;;;5072037;28;20913;-69
2022/09/22 01:48:47;;;;;;;9.33;8.53;;;5.30;99.90;;;;;;5071494;28;20820;-70
2022/09/22 01:51:18;;;;;;;8.40;7.60;;;5.40;99.90;;;;;;5071944;28;20523;-69
2022/09/22 01:53:50;;;;;;;7.43;6.73;;;5.40;99.90;;;;;;5071244;28;20862;-69
2022/09/22 01:56:19;;;;;;;11.67;9.40;;;5.30;99.90;;;;;;5071698;28;20443;-69
2022/09/22 01:58:49;;;;;;;12.83;9.03;;;5.30;99.90;;;;;;5071429;28;20928;-69
2022/09/22 02:01:19;;;;;;;9.70;7.23;;;5.30;99.90;;;;;;5071336;28;20910;-69
2022/09/22 02:03:50;;;;;;;7.67;6.80;;;5.40;99.90;;;;;;5071424;28;20489;-69
2022/09/22 02:06:21;;;;;;;11.93;8.10;;;5.30;99.90;;;;;;5071501;28;20439;-70
2022/09/22 02:08:54;;;;;;;8.97;8.10;;;5.30;99.90;;;;;;5071354;28;20478;-69
2022/09/22 02:11:22;;;;;;;9.57;7.50;;;5.30;99.90;;;;;;5071286;28;20443;-69
2022/09/22 02:13:49;;;;;;;8.20;6.90;;;5.30;99.90;;;;;;5071074;28;20532;-69
2022/09/22 02:16:21;;;;;;;9.20;7.43;;;5.20;99.90;;;;;;5071385;28;20447;-69
2022/09/22 02:18:51;;;;;;;10.30;7.03;;;5.20;99.90;;;;;;5071347;28;20716;-69
2022/09/22 02:21:19;;;;;;;8.33;7.40;;;5.20;99.90;;;;;;5071384;28;20932;-69
2022/09/22 02:23:47;;;;;;;8.87;7.83;;;5.20;99.90;;;;;;5071081;28;20476;-69
2022/09/22 02:26:22;;;;;;;8.63;7.70;;;5.20;99.90;;;;;;5071121;28;20461;-69
2022/09/22 02:28:50;;;;;;;10.73;7.80;;;5.20;99.90;;;;;;5071102;28;20448;-69
2022/09/22 02:31:18;;;;;;;6.83;6.23;;;5.20;99.90;;;;;;5070903;28;20446;-69
2022/09/22 02:33:46;;;;;;;8.80;7.40;;;5.10;99.90;;;;;;5070545;28;20455;-69
2022/09/22 02:36:34;;;;;;;7.70;7.00;;;5.00;99.90;;;;;;5071286;28;20439;-69
2022/09/22 02:39:06;;;;;;;9.17;7.10;;;5.10;99.90;;;;;;5071032;28;20584;-69
2022/09/22 02:41:46;;;;;;;8.00;7.20;;;5.00;99.90;;;;;;5070504;28;20811;-69
2022/09/22 02:44:18;;;;;;;8.00;7.30;;;5.00;99.90;;;;;;5070563;28;20514;-68
2022/09/22 02:46:50;;;;;;;9.80;7.53;;;4.90;99.90;;;;;;5070738;28;20879;-68
2022/09/22 02:49:20;;;;;;;9.87;7.70;;;4.80;99.90;;;;;;5070537;28;20943;-69
2022/09/22 02:51:49;;;;;;;9.30;7.77;;;4.70;99.90;;;;;;5070612;28;20446;-69
2022/09/22 02:54:16;;;;;;;8.67;7.60;;;4.70;99.90;;;;;;5070628;28;20467;-69
2022/09/22 02:56:43;;;;;;;9.90;8.30;;;4.80;99.90;;;;;;5070390;28;20444;-69
2022/09/22 02:59:11;;;;;;;10.50;8.90;;;4.80;99.90;;;;;;5070496;28;20759;-69
2022/09/22 03:01:38;;;;;;;9.70;8.90;;;4.80;99.90;;;;;;5069743;28;20542;-69
2022/09/22 03:04:05;;;;;;;13.07;9.17;;;4.80;99.90;;;;;;5070377;28;20467;-69
2022/09/22 03:06:33;;;;;;;16.60;9.30;;;4.80;99.90;;;;;;5074236;28;20447;-69
2022/09/22 03:09:00;;;;;;;10.00;8.20;;;4.80;99.90;;;;;;5072442;28;20848;-69
2022/09/22 03:11:27;;;;;;;9.50;8.50;;;4.90;99.90;;;;;;5070981;28;20473;-69
2022/09/22 03:13:54;;;;;;;8.80;8.00;;;4.90;99.90;;;;;;5080676;23;20488;-67
2022/09/22 03:16:21;;;;;;;10.83;8.10;;;4.90;99.90;;;;;;5052357;28;20831;-66
2022/09/22 03:18:48;;;;;;;9.40;7.93;;;4.90;99.90;;;;;;5052024;28;20466;-67
2022/09/22 03:21:14;;;;;;;8.60;7.80;;;4.90;99.90;;;;;;5052015;28;20436;-67
2022/09/22 03:23:42;;;;;;;10.87;8.30;;;4.70;99.90;;;;;;5051645;28;20997;-68
2022/09/22 03:26:09;;;;;;;11.30;7.90;;;4.70;99.90;;;;;;5051553;28;21056;-68
2022/09/22 03:28:36;;;;;;;8.53;7.63;;;4.70;99.90;;;;;;5051538;28;20443;-67
2022/09/22 03:31:02;;;;;;;9.93;8.17;;;4.70;99.90;;;;;;5052126;28;20452;-67
2022/09/22 03:33:29;;;;;;;11.00;7.67;;;4.60;99.90;;;;;;5051150;28;20474;-67
2022/09/22 03:35:56;;;;;;;8.63;7.67;;;4.60;99.90;;;;;;5051640;28;20505;-67
2022/09/22 03:38:23;;;;;;;9.43;7.80;;;4.70;99.90;;;;;;5051512;28;20443;-66
2022/09/22 03:40:52;;;;;;;11.13;10.03;;;4.70;99.90;;;;;;5050992;28;20446;-68
2022/09/22 03:43:19;;;;;;;8.50;7.37;;;4.60;99.90;;;;;;5051660;28;20541;-67
2022/09/22 03:45:46;;;;;;;12.43;7.00;;;4.60;99.90;;;;;;5051771;28;20482;-67
2022/09/22 03:48:12;;;;;;;10.13;7.60;;;4.50;99.90;;;;;;5051746;28;20455;-67
2022/09/22 03:50:39;;;;;;;9.10;8.17;;;4.50;99.90;;;;;;5051565;28;20941;-66
2022/09/22 03:53:06;;;;;;;8.80;7.70;;;4.50;99.90;;;;;;5051365;28;21004;-66
2022/09/22 03:55:33;;;;;;;7.90;7.10;;;4.50;99.90;;;;;;5051633;28;20447;-67
2022/09/22 03:58:02;;;;;;;8.40;7.57;;;4.50;99.90;;;;;;5051612;28;20428;-68
2022/09/22 04:00:29;;;;;;;8.73;7.60;;;4.60;99.90;;;;;;5050755;28;20444;-67
2022/09/22 04:02:57;;;;;;;10.80;8.10;;;4.60;99.90;;;;;;5050495;28;20448;-67
2022/09/22 04:05:24;;;;;;;10.83;8.50;;;4.60;99.90;;;;;;5050609;28;20484;-67
2022/09/22 04:07:50;;;;;;;9.73;8.43;;;4.50;99.90;;;;;;5050600;28;20444;-66
2022/09/22 04:10:17;;;;;;;16.30;8.23;;;4.40;99.90;;;;;;5051286;28;20459;-67
2022/09/22 04:12:44;;;;;;;9.23;8.13;;;4.50;99.90;;;;;;5052848;28;20456;-67
2022/09/22 04:15:12;;;;;;;9.90;8.27;;;4.60;99.90;;;;;;5055187;28;20444;-68
2022/09/22 04:17:39;;;;;;;10.90;8.37;;;4.50;99.90;;;;;;5055741;28;20594;-66
2022/09/22 04:20:10;;;;;;;8.30;7.50;;;4.40;99.90;;;;;;5055075;28;20452;-68
2022/09/22 04:22:36;;;;;;;9.20;8.23;;;4.40;99.90;;;;;;5054304;28;20482;-67
2022/09/22 04:25:04;;;;;;;9.27;8.30;;;4.40;99.90;;;;;;5053684;28;20855;-65
2022/09/22 04:27:30;;;;;;;9.47;8.13;;;4.40;99.90;;;;;;5056855;28;20440;-66
2022/09/22 04:29:59;;;;;;;8.43;7.63;;;4.40;99.90;;;;;;5054611;28;20510;-67
2022/09/22 04:32:27;;;;;;;11.93;8.13;;;4.40;99.90;;;;;;5049483;28;20459;-67
2022/09/22 04:34:54;;;;;;;9.90;9.00;;;4.40;99.90;;;;;;5053607;28;20491;-68
2022/09/22 04:37:21;;;;;;;8.50;7.63;;;4.40;99.90;;;;;;5055041;28;20455;-67
2022/09/22 04:39:47;;;;;;;8.37;7.47;;;4.40;99.90;;;;;;5054146;28;20447;-69
2022/09/22 04:42:14;;;;;;;8.77;7.87;;;4.30;99.90;;;;;;5053377;28;20448;-68
2022/09/22 04:44:41;;;;;;;10.83;7.80;;;4.30;99.90;;;;;;5053221;28;20590;-65
2022/09/22 04:47:08;;;;;;;9.67;7.83;;;4.30;99.90;;;;;;5054200;28;20443;-63
2022/09/22 04:49:36;;;;;;;8.43;7.40;;;4.30;99.90;;;;;;5053819;28;20451;-60
2022/09/22 04:52:03;;;;;;;13.40;8.60;;;4.30;99.90;;;;;;5054565;28;20485;-63
2022/09/22 04:54:30;;;;;;;9.33;7.57;;;4.30;99.90;;;;;;5055475;28;20463;-62
2022/09/22 04:56:57;;;;;;;10.87;7.80;;;4.30;99.90;;;;;;5054097;28;20458;-61
2022/09/22 04:59:24;;;;;;;8.97;8.00;;;4.30;99.90;;;;;;5054007;28;20815;-62
2022/09/22 05:01:50;;;;;;;15.40;8.77;;;4.30;99.90;;;;;;5052878;28;20456;-63
2022/09/22 05:04:17;;;;;;;10.53;7.40;;;4.30;99.90;;;;;;5052402;28;20501;-63
2022/09/22 05:06:45;;;;;;;9.60;7.70;;;4.30;99.90;;;;;;5052598;28;20483;-62
2022/09/22 05:09:13;;;;;;;11.13;8.40;;;4.20;99.90;;;;;;5068616;28;20454;-64
2022/09/22 05:11:39;;;;;;;10.17;8.00;;;4.20;99.90;;;;;;5054657;28;20452;-67
2022/09/22 05:14:06;;;;;;;9.60;7.97;;;4.20;99.90;;;;;;5050530;28;20472;-68
2022/09/22 05:16:34;;;;;;;9.40;8.50;;;4.20;99.90;;;;;;5051399;28;20478;-66
2022/09/22 05:19:00;;;;;;;10.13;7.97;;;4.20;99.90;;;;;;5052575;28;20459;-68
2022/09/22 05:21:27;;;;;;;11.57;8.77;;;4.20;99.90;;;;;;5050539;28;20440;-67
2022/09/22 05:23:55;;;;;;;8.83;7.67;;;4.20;99.90;;;;;;5048814;28;20476;-68
2022/09/22 05:26:22;;;;;;;10.00;7.70;;;4.30;99.90;;;;;;5052350;28;20483;-68
2022/09/22 05:28:49;;;;;;;12.77;8.20;;;4.20;99.90;;;;;;5053237;28;20449;-68
2022/09/22 05:31:16;;;;;;;10.43;9.33;;;4.20;99.90;;;;;;5056315;28;21193;-67
2022/09/22 05:33:43;;;;;;;9.00;8.10;;;4.20;99.90;;;;;;5054959;28;20468;-67
2022/09/22 05:36:10;;;;;;;16.10;9.87;;;4.20;99.90;;;;;;5055085;28;20432;-68
2022/09/22 05:38:36;;;;;;;19.50;10.87;;;4.30;99.90;;;;;;5054364;28;20455;-68
2022/09/22 05:41:05;;;;;;;16.50;11.67;;;4.20;99.90;;;;;;5054370;28;20448;-67
2022/09/22 05:43:32;;;;;;;18.23;9.50;;;4.20;99.90;;;;;;5054624;28;20554;-68
2022/09/22 05:45:58;;;;;;;13.33;8.97;;;4.30;99.90;;;;;;5054721;28;20480;-67
2022/09/22 05:48:25;;;;;;;10.80;8.60;;;4.50;99.90;;;;;;5051625;28;20440;-69
2022/09/22 05:50:52;;;;;;;8.83;8.03;;;4.60;99.90;;;;;;5053237;28;20440;-67
2022/09/22 05:53:19;;;;;;;9.20;8.20;;;4.60;99.90;;;;;;5051893;28;20459;-68
2022/09/22 05:55:45;;;;;;;14.80;9.70;;;4.60;99.90;;;;;;5051343;28;20467;-68
2022/09/22 05:58:14;;;;;;;9.93;7.87;;;4.70;99.90;;;;;;5051684;28;20436;-67
2022/09/22 06:00:41;;;;;;;10.40;8.27;;;4.70;99.90;;;;;;5052571;28;20456;-67
2022/09/22 06:03:08;;;;;;;9.03;8.13;;;4.80;99.90;;;;;;5052258;28;20985;-69
2022/09/22 06:05:35;;;;;;;11.33;9.03;;;4.80;99.90;;;;;;5051776;28;20479;-67
2022/09/22 06:08:05;;;;;;;10.30;7.40;;;4.90;99.90;;;;;;5052554;28;20470;-67
2022/09/22 06:10:34;;;;;;;9.00;7.37;;;4.90;99.90;;;;;;5051896;28;20550;-70
2022/09/22 06:13:02;;;;;;;8.53;7.60;;;5.00;99.90;;;;;;5052115;28;20507;-67
2022/09/22 06:15:32;;;;;;;8.67;7.77;;;5.10;99.90;;;;;;5051221;28;20440;-67
2022/09/22 06:17:59;;;;;;;8.90;8.10;;;5.10;99.90;;;;;;5051326;28;20439;-67
2022/09/22 06:20:27;;;;;;;9.47;8.47;;;5.10;99.90;;;;;;5051185;28;20444;-67
2022/09/22 06:22:53;;;;;;;13.93;8.70;;;5.20;99.90;;;;;;5050852;28;20455;-66
2022/09/22 06:25:20;;;;;;;9.37;8.53;;;5.30;99.90;;;;;;5050854;28;20487;-68
2022/09/22 06:27:48;;;;;;;10.83;8.93;;;5.30;99.90;;;;;;5047140;28;20452;-67
2022/09/22 06:30:14;;;;;;;9.87;9.00;;;5.30;99.90;;;;;;5049282;28;21196;-66
2022/09/22 06:32:44;;;;;;;10.90;9.80;;;5.40;99.90;;;;;;5049313;28;20450;-67
2022/09/22 06:35:11;;;;;;;9.93;8.93;;;5.70;99.90;;;;;;5049180;28;20456;-68
2022/09/22 06:37:39;;;;;;;11.07;9.00;;;5.80;99.90;;;;;;5049487;28;20440;-68
2022/09/22 06:40:08;;;;;;;11.63;9.30;;;6.00;99.90;;;;;;5049873;28;20462;-67
2022/09/22 06:42:35;;;;;;;12.13;9.20;;;6.10;99.90;;;;;;5049362;28;20933;-67
2022/09/22 06:45:03;;;;;;;15.60;12.53;;;6.10;99.90;;;;;;5050015;28;20522;-67
2022/09/22 06:47:30;;;;;;;15.00;13.23;;;6.20;99.90;;;;;;5049615;28;20456;-67
2022/09/22 06:50:00;;;;;;;14.90;11.33;;;6.30;99.90;;;;;;5050176;28;20506;-66
2022/09/22 06:52:27;;;;;;;14.60;12.90;;;6.40;99.90;;;;;;5049583;28;20495;-67
2022/09/22 06:54:59;;;;;;;13.90;12.60;;;6.50;99.90;;;;;;5049704;28;20525;-68
2022/09/22 06:57:26;;;;;;;14.33;12.80;;;6.60;99.90;;;;;;5049389;28;20550;-67
2022/09/22 06:59:53;;;;;;;16.17;12.97;;;6.70;99.90;;;;;;5050237;28;20458;-67
2022/09/22 07:02:21;;;;;;;17.67;13.80;;;6.80;99.90;;;;;;5050022;28;20455;-67
2022/09/22 07:04:49;;;;;;;15.53;14.03;;;6.90;99.90;;;;;;5050589;28;20849;-67
2022/09/22 07:07:17;;;;;;;14.50;12.13;;;6.90;99.90;;;;;;5043753;28;20483;-67
2022/09/22 07:09:44;;;;;;;16.07;11.73;;;7.00;99.90;;;;;;5044765;28;20444;-67
2022/09/22 07:12:11;;;;;;;13.77;12.37;;;7.10;99.90;;;;;;5049216;28;20466;-68
2022/09/22 07:14:38;;;;;;;13.67;11.80;;;7.20;99.90;;;;;;5049757;28;20845;-67
2022/09/22 07:17:05;;;;;;;13.27;11.87;;;7.30;99.90;;;;;;5049891;28;20790;-68
2022/09/22 07:19:35;;;;;;;12.97;11.67;;;7.30;99.90;;;;;;5049035;28;20452;-67
2022/09/22 07:22:02;;;;;;;17.50;12.03;;;7.40;99.90;;;;;;5052803;28;20444;-67
2022/09/22 07:24:31;;;;;;;13.70;12.40;;;7.50;99.90;;;;;;5051690;28;21047;-68
2022/09/22 07:27:03;;;;;;;12.77;11.47;;;7.60;99.90;;;;;;5050028;28;20475;-68
2022/09/22 07:29:31;;;;;;;13.90;11.20;;;7.80;99.90;;;;;;5049627;28;20448;-69
2022/09/22 07:31:58;;;;;;;12.50;11.00;;;7.90;99.90;;;;;;5049055;28;20934;-68
2022/09/22 07:34:25;;;;;;;14.80;11.53;;;8.00;99.90;;;;;;5049779;28;20562;-67
2022/09/22 07:36:52;;;;;;;14.57;12.50;;;8.00;99.90;;;;;;5050416;28;20452;-67
2022/09/22 07:39:19;;;;;;;12.53;11.30;;;8.20;99.90;;;;;;5049616;28;20444;-68
2022/09/22 07:41:47;;;;;;;11.37;9.80;;;8.30;99.90;;;;;;5056750;28;20466;-68
2022/09/22 07:47:00;;;;;;;12.83;11.40;;;8.40;99.90;;;;;;5051161;28;20467;-67
2022/09/22 07:49:27;;;;;;;17.10;12.20;;;8.50;99.90;;;;;;5052785;28;20470;-68
2022/09/22 07:51:56;;;;;;;11.47;10.37;;;8.60;99.90;;;;;;5056714;28;20872;-67
2022/09/22 07:54:23;;;;;;;12.73;11.50;;;8.60;99.90;;;;;;5050387;28;20911;-69
2022/09/22 07:56:54;;;;;;;14.70;10.90;;;8.70;99.90;;;;;;5050617;28;20436;-66
2022/09/22 07:59:21;;;;;;;10.97;9.90;;;8.80;99.90;;;;;;5053444;28;21033;-68
2022/09/22 08:01:49;;;;;;;12.50;10.50;;;9.00;99.90;;;;;;5050912;28;20452;-66
2022/09/22 08:04:21;;;;;;;10.07;9.07;;;9.10;99.90;;;;;;5053380;28;20477;-66
2022/09/22 08:06:51;;;;;;;10.50;9.60;;;9.20;99.90;;;;;;5053517;28;20486;-66
2022/09/22 08:09:18;;;;;;;11.90;9.93;;;9.30;99.90;;;;;;5053346;28;20459;-67
2022/09/22 08:11:47;;;;;;;9.40;8.50;;;9.40;99.90;;;;;;5055351;28;20451;-65
2022/09/22 08:14:17;;;;;;;10.57;9.63;;;9.40;99.90;;;;;;5073305;28;21073;-66
2022/09/22 08:16:45;;;;;;;9.37;8.47;;;9.60;99.90;;;;;;5073241;28;20960;-67
2022/09/22 08:19:13;;;;;;;10.07;9.03;;;9.70;99.90;;;;;;5073107;28;20508;-67
2022/09/22 08:21:42;;;;;;;8.57;7.70;;;9.90;99.90;;;;;;5072798;28;20457;-67
2022/09/22 08:24:11;;;;;;;8.77;7.97;;;10.00;99.90;;;;;;5073256;28;20852;-68
2022/09/22 08:26:39;;;;;;;8.13;7.30;;;10.10;99.90;;;;;;5067849;28;21059;-66
2022/09/22 08:29:07;;;;;;;8.37;7.57;;;10.30;99.90;;;;;;5052771;28;20459;-66
2022/09/22 08:31:36;;;;;;;7.63;6.87;;;10.50;99.90;;;;;;5053088;28;20547;-66
2022/09/22 08:34:04;;;;;;;7.13;6.43;;;10.70;99.90;;;;;;5052707;28;20471;-66
2022/09/22 08:36:31;;;;;;;7.63;6.93;;;10.90;99.90;;;;;;5053268;28;20930;-67
2022/09/22 08:38:59;;;;;;;6.60;6.00;;;11.00;99.90;;;;;;5052959;28;20448;-66
2022/09/22 08:41:37;;;;;;;6.13;5.53;;;11.10;99.90;;;;;;5053110;28;20447;-67
2022/09/22 08:44:17;;;;;;;5.87;5.13;;;11.30;99.90;;;;;;5052754;28;20467;-68
2022/09/22 08:46:46;;;;;;;6.00;4.93;;;11.50;99.90;;;;;;5052728;28;20476;-68
2022/09/22 08:52:14;;;;;;;6.13;4.50;;;12.00;99.90;;;;;;5052396;28;20555;-65
2022/09/22 08:54:43;;;;;;;4.57;4.17;;;12.30;99.90;;;;;;5052563;28;20533;-68
2022/09/22 08:57:24;;;;;;;5.00;4.50;;;12.60;99.90;;;;;;5053086;28;20444;-67
2022/09/22 08:59:54;;;;;;;3.60;3.30;;;12.80;99.90;;;;;;5054402;28;20470;-66
2022/09/22 09:02:38;;;;;;;7.20;3.30;;;13.20;99.90;;;;;;5052333;28;20455;-66
2022/09/22 09:05:37;;;;;;;3.30;2.67;;;13.60;99.90;;;;;;5053888;28;20552;-66
2022/09/22 09:08:14;;;;;;;2.87;2.50;;;14.10;99.90;;;;;;5054225;28;20440;-68
2022/09/22 09:10:49;;;;;;;3.07;2.27;;;14.60;99.90;;;;;;5053182;28;20443;-66
2022/09/22 09:13:31;;;;;;;2.70;2.50;;;15.00;99.90;;;;;;5052493;28;20482;-68
2022/09/22 09:16:12;;;;;;;3.57;2.70;;;15.40;99.90;;;;;;5053110;28;21143;-67
2022/09/22 09:18:44;;;;;;;4.00;2.37;;;15.70;99.90;;;;;;5045354;28;20459;-67
2022/09/22 09:21:15;;;;;;;2.73;2.17;;;16.10;99.90;;;;;;5052259;28;20464;-67
2022/09/22 09:23:46;;;;;;;2.67;2.47;;;16.40;99.90;;;;;;5054268;28;20452;-67
2022/09/22 09:26:15;;;;;;;2.50;1.83;;;16.60;99.90;;;;;;5054242;28;20483;-66
2022/09/22 09:28:45;;;;;;;2.20;2.00;;;16.80;99.90;;;;;;5053195;28;20448;-67
2022/09/22 09:31:18;;;;;;;2.10;1.90;;;17.10;99.90;;;;;;5052763;28;20965;-66
2022/09/22 09:33:57;;;;;;;3.83;1.73;;;17.40;99.90;;;;;;5050134;28;20466;-66
2022/09/22 09:36:32;;;;;;;2.00;1.80;;;17.80;99.90;;;;;;5043073;28;20543;-66
2022/09/22 09:39:03;;;;;;;2.27;1.90;;;17.90;99.90;;;;;;5050971;28;20451;-68
2022/09/22 09:41:33;;;;;;;3.17;1.90;;;18.00;99.90;;;;;;5051016;28;20847;-66
2022/09/22 09:44:01;;;;;;;3.27;2.07;;;18.20;99.90;;;;;;5050584;28;20478;-67
2022/09/22 09:46:39;;;;;;;2.30;1.70;;;18.70;99.90;;;;;;5049887;28;20475;-67
2022/09/22 09:49:13;;;;;;;1.90;1.60;;;19.10;99.90;;;;;;5051063;28;20471;-66
2022/09/22 09:51:42;;;;;;;2.67;1.60;;;19.40;98.60;;;;;;5051656;28;20490;-69
2022/09/22 09:54:12;;;;;;;1.57;1.40;;;19.40;98.00;;;;;;5051865;28;21053;-68
2022/09/22 09:57:01;;;;;;;1.90;1.30;;;19.40;98.60;;;;;;5052381;28;20440;-68
2022/09/22 10:02:15;;;;;;;1.97;1.50;;;19.30;96.00;;;;;;5033423;28;20495;-66
2022/09/22 10:04:50;;;;;;;4.43;1.50;;;19.40;98.00;;;;;;5049622;28;20467;-68
2022/09/22 10:07:20;;;;;;;2.73;1.60;;;19.70;97.20;;;;;;5052574;28;21004;-65
2022/09/22 10:09:48;;;;;;;1.87;1.50;;;19.90;96.50;;;;;;5051281;28;20826;-66
2022/09/22 10:12:24;;;;;;;3.53;1.40;;;20.30;96.50;;;;;;5050826;28;20949;-68
2022/09/22 10:14:54;;;;;;;2.30;1.70;;;20.50;95.00;;;;;;5051223;28;20467;-68
2022/09/22 10:17:22;;;;;;;1.80;1.40;;;20.50;94.70;;;;;;5051125;28;20444;-69
2022/09/22 10:19:49;;;;;;;1.93;1.37;;;20.60;94.70;;;;;;5050946;28;20444;-68
2022/09/22 10:22:25;;;;;;;2.47;2.00;;;20.90;95.60;;;;;;5049742;28;20451;-68
2022/09/22 10:24:57;;;;;;;1.67;1.40;;;21.00;93.50;;;;;;5050225;28;20471;-67
2022/09/22 10:27:26;;;;;;;2.13;1.50;;;21.00;93.60;;;;;;5049641;28;20479;-67
2022/09/22 10:30:22;;;;;;;2.00;1.80;;;21.20;93.20;;;;;;5049299;28;20447;-65
2022/09/22 10:33:05;;;;;;;2.90;1.63;;;21.10;93.20;;;;;;5041463;28;20444;-68
2022/09/22 10:35:33;;;;;;;2.37;1.50;;;21.20;92.80;;;;;;5043794;28;21007;-70
2022/09/22 10:38:15;;;;;;;1.60;1.40;;;21.60;92.70;;;;;;5050759;28;20446;-67
2022/09/22 10:40:46;;;;;;;1.60;1.30;;;22.20;91.70;;;;;;5049853;28;20456;-67
2022/09/22 10:43:35;;;;;;;2.43;1.40;;;22.10;91.60;;;;;;5049598;28;20476;-67
2022/09/22 10:46:17;;;;;;;1.70;1.50;;;22.20;91.10;;;;;;5047726;28;20452;-67
2022/09/22 10:48:48;;;;;;;2.00;1.13;;;22.30;90.70;;;;;;5050361;28;21092;-68
2022/09/22 10:51:21;;;;;;;1.53;1.23;;;22.80;87.30;;;;;;5050377;28;20527;-68
2022/09/22 10:54:07;;;;;;;2.47;1.50;;;23.20;88.30;;;;;;5048083;28;20476;-68
2022/09/22 10:56:38;;;;;;;1.47;1.20;;;23.60;86.10;;;;;;5050279;28;20490;-68
2022/09/22 10:59:31;;;;;;;1.73;1.33;;;23.90;84.50;;;;;;5050284;28;20443;-69
2022/09/22 11:02:13;;;;;;;1.87;1.40;;;24.10;83.60;;;;;;5041317;28;20462;-68
2022/09/22 11:04:56;;;;;;;1.90;1.50;;;24.20;80.50;;;;;;5050298;28;20475;-68
2022/09/22 11:13:41;;;;;;;1.20;1.00;;;25.30;77.30;;;;;;5049636;28;20463;-68
2022/09/22 11:16:35;;;;;;;1.50;1.13;;;25.80;76.50;;;;;;5050158;28;20454;-68
2022/09/22 11:19:23;;;;;;;2.90;1.30;;;25.60;70.60;;;;;;5047370;28;20463;-68
2022/09/22 11:22:04;;;;;;;1.90;1.07;;;25.80;74.70;;;;;;5048980;28;20454;-68
2022/09/22 11:24:49;;;;;;;1.40;1.10;;;25.70;71.90;;;;;;5044216;28;20471;-66
2022/09/22 11:27:25;;;;;;;2.90;1.37;;;25.80;72.50;;;;;;5048903;28;20479;-67
2022/09/22 11:30:07;;;;;;;1.70;1.13;;;25.50;73.50;;;;;;5042616;28;20448;-66
2022/09/22 11:33:02;;;;;;;1.43;1.17;;;26.10;72.40;;;;;;5045931;28;20454;-66
2022/09/22 11:35:44;;;;;;;1.63;1.20;;;26.00;71.30;;;;;;5022952;28;20708;-66
2022/09/22 11:38:46;;;;;;;2.50;1.30;;;26.00;70.30;;;;;;5030217;28;20444;-67
2022/09/22 11:41:29;;;;;;;1.97;1.20;;;26.20;68.10;;;;;;5045848;28;20442;-66
2022/09/22 11:44:21;;;;;;;2.03;1.00;;;26.80;65.60;;;;;;5049717;28;20468;-66
2022/09/22 11:47:00;;;;;;;1.30;1.00;;;27.30;67.70;;;;;;5049554;28;20475;-66
2022/09/22 11:49:39;;;;;;;2.77;1.00;;;28.20;65.90;;;;;;5049673;28;20941;-67
2022/09/22 11:52:21;;;;;;;2.60;1.30;;;28.60;62.10;;;;;;5049390;28;20451;-67
2022/09/22 11:55:03;;;;;;;1.83;1.30;;;28.80;60.90;;;;;;5043378;28;21167;-67
2022/09/22 11:57:35;;;;;;;1.70;0.90;;;28.60;58.00;;;;;;5049195;28;20436;-67
2022/09/22 12:00:05;;;;;;;1.40;0.90;;;28.90;58.70;;;;;;5049893;28;20564;-67
2022/09/22 12:02:38;;;;;;;1.97;1.40;;;29.10;58.70;;;;;;5048733;28;20450;-67
2022/09/22 12:05:10;;;;;;;3.10;1.10;;;29.20;57.80;;;;;;5049612;28;20471;-67
2022/09/22 12:07:44;;;;;;;1.90;0.93;;;29.20;57.70;;;;;;5049470;28;20484;-67
2022/09/22 12:10:16;;;;;;;3.83;1.00;;;29.20;57.70;;;;;;5049436;28;20450;-67
2022/09/22 12:12:47;;;;;;;2.20;1.13;;;29.90;57.80;;;;;;5048802;28;20448;-65
2022/09/22 12:15:22;;;;;;;1.47;0.90;;;30.80;55.10;;;;;;5048931;28;20475;-67
2022/09/22 12:17:54;;;;;;;3.50;1.73;;;31.30;53.50;;;;;;5049336;28;20826;-66
2022/09/22 12:20:33;;;;;;;2.10;1.87;;;31.10;52.60;;;;;;5047769;28;20455;-67
2022/09/22 12:23:29;;;;;;;1.60;1.20;;;30.90;52.10;;;;;;5048496;28;20459;-67
2022/09/22 12:25:59;;;;;;;1.50;1.10;;;31.10;52.10;;;;;;5049184;28;20452;-66
2022/09/22 12:28:28;;;;;;;6.63;1.30;;;30.40;50.70;;;;;;5049121;28;20578;-66
2022/09/22 12:31:04;;;;;;;1.70;1.10;;;30.60;51.60;;;;;;5048933;28;20444;-68
2022/09/22 12:33:33;;;;;;;1.63;1.20;;;30.90;52.40;;;;;;5049667;28;20471;-67
2022/09/22 12:36:02;;;;;;;2.10;1.20;;;31.20;50.40;;;;;;5050897;28;20523;-67
2022/09/22 12:38:31;;;;;;;2.53;1.17;;;31.60;50.60;;;;;;5052664;28;20501;-67
2022/09/22 12:41:01;;;;;;;1.77;0.90;;;32.30;51.10;;;;;;5052546;28;20458;-65
2022/09/22 12:43:29;;;;;;;1.77;1.07;;;32.50;47.40;;;;;;5052285;28;20922;-67
2022/09/22 12:45:57;;;;;;;1.20;0.90;;;32.50;49.30;;;;;;5052764;28;20439;-67
2022/09/22 12:48:28;;;;;;;1.60;0.90;;;32.20;48.00;;;;;;5052568;28;20481;-68
2022/09/22 12:51:15;;;;;;;1.10;0.83;;;32.40;48.00;;;;;;5052670;28;20448;-67
2022/09/22 12:53:43;;;;;;;1.40;1.10;;;32.70;48.20;;;;;;5052238;28;20467;-68
2022/09/22 12:56:42;;;;;;;1.40;0.90;;;33.20;47.90;;;;;;5052505;28;20455;-68
2022/09/22 12:59:42;;;;;;;3.20;1.40;;;33.60;45.00;;;;;;5052582;28;20436;-67
2022/09/22 13:02:30;;;;;;;1.57;1.30;;;33.80;45.60;;;;;;5052176;28;20535;-68
2022/09/22 13:05:34;;;;;;;1.83;1.17;;;34.20;45.30;;;;;;5052436;28;20467;-67
2022/09/22 13:08:01;;;;;;;1.40;0.87;;;34.40;44.30;;;;;;4990085;28;20486;-67
2022/09/22 13:10:41;;;;;;;2.17;1.00;;;34.60;43.10;;;;;;5040802;28;20463;-68
2022/09/22 13:13:24;;;;;;;1.80;1.00;;;35.00;44.30;;;;;;5051885;28;20483;-68
2022/09/22 13:15:56;;;;;;;2.00;1.27;;;34.40;42.60;;;;;;5052224;28;20440;-67
2022/09/22 13:18:34;;;;;;;1.70;1.20;;;34.10;43.50;;;;;;5051989;28;21116;-68
2022/09/22 13:21:02;;;;;;;1.37;1.00;;;34.70;44.30;;;;;;5052133;28;20451;-68
2022/09/22 13:23:29;;;;;;;1.40;1.10;;;34.30;42.80;;;;;;5051492;28;20465;-68
2022/09/22 13:26:06;;;;;;;1.67;1.00;;;34.10;42.20;;;;;;5052010;28;20455;-67
2022/09/22 13:28:33;;;;;;;1.97;1.07;;;33.60;42.50;;;;;;5051980;28;20483;-68